Time;durP1;ratioP1;P1;durP2;ratioP2;P2;SDS_P1;SDS_P2;PMS_P1;PMS_P2;Temp;Humidity;BMP_temperature;BMP_pressure;BME280_temperature;BME280_humidity;BME280_pressure;Samples;Min_cycle;Max_cycle;Signal;HPM_P1;HPM_P2
2021/01/26 00:01:05;;;;;;;13.35;10.05;;;;;;;6.79;100.00;97300.94;1751695;80;21051;-84
2021/01/26 00:03:34;;;;;;;16.67;9.20;;;;;;;6.83;100.00;97303.30;1768584;80;21133;-85
2021/01/26 00:06:03;;;;;;;15.58;9.45;;;;;;;6.83;100.00;97293.14;1781198;80;21190;-81
2021/01/26 00:08:30;;;;;;;17.52;10.48;;;;;;;6.83;100.00;97281.13;1780929;80;21031;-80
2021/01/26 00:10:58;;;;;;;17.27;9.03;;;;;;;6.82;100.00;97282.20;1761851;80;21628;-81
2021/01/26 00:13:26;;;;;;;14.50;10.75;;;;;;;6.81;100.00;97294.75;1749615;80;21131;-80
2021/01/26 00:15:53;;;;;;;12.40;9.55;;;;;;;6.81;100.00;97291.31;1772177;80;21191;-82
2021/01/26 00:18:21;;;;;;;11.38;9.30;;;;;;;6.78;100.00;97285.98;1773489;80;22022;-83
2021/01/26 00:20:48;;;;;;;13.83;9.05;;;;;;;6.76;100.00;97280.12;1778658;80;21843;-77
2021/01/26 00:23:15;;;;;;;10.78;9.68;;;;;;;6.76;100.00;97274.77;1753817;80;21031;-77
2021/01/26 00:25:44;;;;;;;14.93;10.35;;;;;;;6.72;100.00;97267.61;1749852;80;21637;-83
2021/01/26 00:28:14;;;;;;;11.48;9.33;;;;;;;6.71;100.00;97276.73;1770062;80;21571;-83
2021/01/26 00:30:41;;;;;;;14.78;10.35;;;;;;;6.72;100.00;97268.41;1779223;80;21262;-86
2021/01/26 00:33:17;;;;;;;12.75;8.93;;;;;;;6.69;100.00;97270.33;1756126;80;21674;-84
2021/01/26 00:35:46;;;;;;;15.63;8.55;;;;;;;6.65;100.00;97268.51;1778472;80;21110;-79
2021/01/26 00:38:14;;;;;;;15.15;9.73;;;;;;;6.61;100.00;97262.16;1778366;80;21026;-81
2021/01/26 00:40:41;;;;;;;15.88;8.28;;;;;;;6.57;100.00;97261.90;1749241;80;21121;-80
2021/01/26 00:43:10;;;;;;;13.48;8.83;;;;;;;6.59;100.00;97249.08;1764764;80;21188;-83
2021/01/26 00:45:38;;;;;;;9.63;7.85;;;;;;;6.62;100.00;97255.17;1778780;80;21549;-78
2021/01/26 00:48:07;;;;;;;12.80;8.90;;;;;;;6.60;100.00;97256.55;1763244;80;20963;-84
2021/01/26 00:50:35;;;;;;;14.47;7.87;;;;;;;6.62;100.00;97254.41;1770667;80;21152;-75
2021/01/26 00:53:03;;;;;;;9.93;8.90;;;;;;;6.61;100.00;97242.13;1730122;81;21161;-71
2021/01/26 00:55:41;;;;;;;12.47;8.60;;;;;;;6.64;100.00;97227.66;1886900;76;28725;-71
2021/01/26 00:58:09;;;;;;;12.45;8.03;;;;;;;6.62;100.00;97233.04;1775788;80;20995;-78
2021/01/26 01:00:38;;;;;;;11.95;7.08;;;;;;;6.63;100.00;97230.06;1762501;81;21581;-79
2021/01/26 01:03:13;;;;;;;13.18;8.48;;;;;;;6.66;100.00;97231.39;1795467;79;21010;-81
2021/01/26 01:05:41;;;;;;;11.33;6.83;;;;;;;6.61;100.00;97227.44;1773026;80;20955;-80
2021/01/26 01:08:08;;;;;;;12.28;7.70;;;;;;;6.57;100.00;97213.30;1760900;80;21524;-79
2021/01/26 01:10:38;;;;;;;11.28;7.95;;;;;;;6.57;100.00;97211.96;1806434;79;20975;-80
2021/01/26 01:13:06;;;;;;;13.53;8.28;;;;;;;6.53;100.00;97223.50;1775176;79;21214;-80
2021/01/26 01:15:33;;;;;;;9.35;6.83;;;;;;;6.52;100.00;97207.25;1788052;79;21070;-79
2021/01/26 01:18:01;;;;;;;8.25;6.08;;;;;;;6.52;100.00;97207.25;1783418;80;21579;-79
2021/01/26 01:20:28;;;;;;;7.95;6.17;;;;;;;6.54;100.00;97205.07;1787047;80;21023;-80
2021/01/26 01:22:56;;;;;;;10.32;7.50;;;;;;;6.48;100.00;97198.19;1785139;80;21114;-81
2021/01/26 01:25:23;;;;;;;12.05;6.97;;;;;;;6.40;100.00;97206.83;1786890;80;21718;-78
2021/01/26 01:27:50;;;;;;;12.35;7.50;;;;;;;6.41;100.00;97224.45;1822370;78;21113;-78
2021/01/26 01:30:22;;;;;;;10.85;7.42;;;;;;;6.46;100.00;97225.73;1822630;78;21154;-78
2021/01/26 01:32:49;;;;;;;10.55;7.62;;;;;;;6.44;100.00;97227.34;1765092;81;20977;-78
2021/01/26 01:35:18;;;;;;;14.70;8.03;;;;;;;6.40;100.00;97224.98;1770856;80;21153;-78
2021/01/26 01:37:46;;;;;;;11.30;8.08;;;;;;;6.39;100.00;97210.57;1780167;80;22094;-79
2021/01/26 01:40:19;;;;;;;11.22;7.62;;;;;;;6.44;100.00;97213.19;1781473;80;21582;-80
2021/01/26 01:42:49;;;;;;;10.18;7.67;;;;;;;6.43;100.00;97227.61;1803368;78;21581;-74
2021/01/26 01:45:18;;;;;;;8.40;6.95;;;;;;;6.39;100.00;97228.72;1796164;79;21003;-74
2021/01/26 01:47:54;;;;;;;11.85;7.28;;;;;;;6.37;100.00;97220.75;1783297;80;21192;-73
2021/01/26 01:50:33;;;;;;;9.18;6.33;;;;;;;6.35;100.00;97230.91;1752320;81;21203;-74
2021/01/26 01:53:24;;;;;;;8.60;6.92;;;;;;;6.35;100.00;97229.03;1765313;80;21141;-75
2021/01/26 01:55:58;;;;;;;6.40;5.80;;;;;;;6.30;100.00;97227.75;1779736;80;21193;-74
2021/01/26 01:58:30;;;;;;;11.12;6.22;;;;;;;6.25;100.00;97226.47;1749952;82;21559;-74
2021/01/26 02:01:06;;;;;;;8.28;6.47;;;;;;;6.22;100.00;97233.71;1752486;81;21174;-75
2021/01/26 02:03:36;;;;;;;8.28;5.62;;;;;;;6.16;100.00;97249.50;1731692;82;21223;-74
2021/01/26 02:06:05;;;;;;;6.00;5.37;;;;;;;6.12;100.00;97255.95;1765393;80;21618;-73
2021/01/26 02:08:56;;;;;;;5.60;3.87;;;;;;;6.10;100.00;97282.64;1784453;80;21201;-75
2021/01/26 02:11:24;;;;;;;3.52;2.92;;;;;;;6.04;100.00;97307.22;1784460;80;21058;-78
2021/01/26 02:13:51;;;;;;;2.67;2.42;;;;;;;5.84;100.00;97320.70;1784946;80;21141;-80
2021/01/26 02:16:34;;;;;;;2.50;2.30;;;;;;;5.60;99.32;97333.11;1786247;80;21886;-78
2021/01/26 02:19:58;;;;;;;3.22;2.50;;;;;;;5.26;95.63;97349.80;1787916;80;20932;-82
2021/01/26 02:23:22;;;;;;;2.45;2.25;;;;;;;4.99;94.34;97346.68;1703322;83;21035;-83
2021/01/26 02:26:34;;;;;;;2.10;1.92;;;;;;;4.62;93.06;97365.67;1670410;83;21754;-81
2021/01/26 02:29:10;;;;;;;2.70;2.50;;;;;;;4.37;92.48;97367.02;1781655;80;21133;-80
2021/01/26 02:32:20;;;;;;;2.75;2.55;;;;;;;4.16;91.98;97378.21;1777533;80;21430;-82
2021/01/26 02:35:00;;;;;;;2.30;2.12;;;;;;;3.99;91.79;97397.59;1755846;80;21221;-74
2021/01/26 02:38:04;;;;;;;2.55;2.35;;;;;;;3.71;92.02;97412.15;1783556;80;21141;-81
2021/01/26 02:40:46;;;;;;;3.60;3.30;;;;;;;3.61;92.62;97418.76;1783681;80;21105;-86
2021/01/26 02:43:41;;;;;;;2.45;2.25;;;;;;;3.48;92.59;97414.73;1780740;80;21106;-84
2021/01/26 02:46:19;;;;;;;3.08;2.87;;;;;;;3.43;92.64;97440.48;1775244;80;21385;-83
2021/01/26 02:49:08;;;;;;;2.40;2.20;;;;;;;3.33;92.58;97450.52;1753106;81;21178;-83
2021/01/26 02:52:05;;;;;;;3.37;3.08;;;;;;;3.24;93.05;97473.84;1779982;80;21148;-83
2021/01/26 02:54:58;;;;;;;6.83;3.62;;;;;;;3.24;93.05;97473.84;1783320;80;21146;-84
2021/01/26 02:57:31;;;;;;;5.03;3.05;;;;;;;3.19;93.17;97464.00;1780361;80;21114;-83
2021/01/26 03:00:13;;;;;;;2.22;2.02;;;;;;;3.12;93.15;97471.37;1779369;80;21301;-82
2021/01/26 03:02:58;;;;;;;6.12;2.92;;;;;;;3.05;93.28;97480.91;1749301;82;21184;-82
2021/01/26 03:05:30;;;;;;;4.58;2.95;;;;;;;3.03;93.45;97482.20;1762994;80;21479;-82
2021/01/26 03:08:05;;;;;;;12.20;4.90;;;;;;;2.99;93.34;97488.56;1750082;80;21126;-81
2021/01/26 03:10:42;;;;;;;7.42;3.80;;;;;;;2.98;93.42;97488.80;1749242;82;21563;-82
2021/01/26 03:13:11;;;;;;;5.75;3.40;;;;;;;2.96;93.42;97498.89;1748403;82;22621;-83
2021/01/26 03:15:49;;;;;;;6.37;4.00;;;;;;;2.90;93.47;97502.56;1765468;80;21138;-81
2021/01/26 03:18:20;;;;;;;13.60;5.67;;;;;;;2.84;93.44;97498.26;1777139;80;21098;-81
2021/01/26 03:20:53;;;;;;;8.83;4.87;;;;;;;2.77;93.52;97497.16;1765106;80;21160;-84
2021/01/26 03:23:29;;;;;;;6.78;3.02;;;;;;;2.72;93.55;97498.45;1761592;81;21638;-85
2021/01/26 03:25:57;;;;;;;7.53;3.77;;;;;;;2.70;93.55;97507.70;1784045;80;21387;-79
2021/01/26 03:28:25;;;;;;;6.40;4.45;;;;;;;2.62;92.92;97507.13;1742396;82;21026;-82
2021/01/26 03:30:54;;;;;;;3.83;3.27;;;;;;;2.58;92.97;97547.16;1735906;81;21157;-81
2021/01/26 03:33:24;;;;;;;6.67;4.28;;;;;;;2.53;92.85;97534.36;1759402;81;21164;-83
2021/01/26 03:35:52;;;;;;;4.70;4.30;;;;;;;2.50;93.00;97546.78;1791619;80;21415;-81
2021/01/26 03:38:26;;;;;;;5.15;4.12;;;;;;;2.42;92.64;97536.11;1791107;80;21208;-83
2021/01/26 03:40:54;;;;;;;6.20;4.97;;;;;;;2.38;92.40;97520.42;1790389;80;21125;-83
2021/01/26 03:43:22;;;;;;;6.30;4.50;;;;;;;2.36;92.32;97522.52;1759438;81;20992;-85
2021/01/26 03:46:48;;;;;;;4.87;4.20;;;;;;;2.31;91.89;97536.23;1792259;78;21042;-85
2021/01/26 03:49:38;;;;;;;6.25;5.30;;;;;;;2.32;91.93;97539.98;1762009;81;21662;-87
2021/01/26 03:52:41;;;;;;;5.95;5.42;;;;;;;2.34;91.83;97549.83;1754670;81;21718;-88
2021/01/26 03:55:43;;;;;;;4.85;4.35;;;;;;;2.35;91.60;97536.05;1755747;81;21159;-86
2021/01/26 03:58:51;;;;;;;10.08;7.62;;;;;;;2.27;90.85;97554.52;1754483;81;21116;-86
2021/01/26 04:01:39;;;;;;;10.88;5.75;;;;;;;2.28;90.89;97561.95;1719811;82;21178;-86
2021/01/26 04:04:46;;;;;;;8.50;7.37;;;;;;;2.31;90.74;97562.23;1776875;80;21149;-85
2021/01/26 04:07:22;;;;;;;7.67;6.65;;;;;;;2.33;90.11;97556.17;1659007;85;21396;-84
2021/01/26 04:10:14;;;;;;;11.28;8.35;;;;;;;2.27;89.63;97573.07;1683769;85;21584;-86
2021/01/26 04:12:43;;;;;;;8.38;7.28;;;;;;;2.27;89.66;97561.14;1683058;85;21180;-84
2021/01/26 04:15:15;;;;;;;8.53;7.05;;;;;;;2.28;89.73;97577.86;1684488;85;21018;-84
2021/01/26 04:17:47;;;;;;;9.58;6.55;;;;;;;2.30;89.82;97581.07;1630422;88;21234;-83
2021/01/26 04:20:27;;;;;;;10.60;9.00;;;;;;;2.31;89.83;97581.33;1684980;85;21211;-84
2021/01/26 04:22:58;;;;;;;12.28;9.93;;;;;;;2.32;90.00;97581.61;1684037;85;21151;-82
2021/01/26 04:25:31;;;;;;;13.08;9.38;;;;;;;2.27;89.66;97611.52;1686159;85;21088;-81
2021/01/26 04:28:00;;;;;;;12.03;9.15;;;;;;;2.25;89.97;97610.19;1674974;85;21057;-76
2021/01/26 04:30:28;;;;;;;9.45;8.43;;;;;;;2.24;89.69;97620.51;1688679;85;21120;-85
2021/01/26 04:33:03;;;;;;;14.58;9.95;;;;;;;2.25;89.39;97618.14;1685942;85;21287;-77
2021/01/26 04:35:38;;;;;;;12.70;9.47;;;;;;;2.27;88.96;97627.95;1839812;76;22745;-78
2021/01/26 04:38:06;;;;;;;14.18;9.45;;;;;;;2.23;89.02;97606.97;1734274;82;21527;-77
2021/01/26 04:40:34;;;;;;;10.35;8.85;;;;;;;2.22;89.13;97618.09;1732353;82;21334;-78
2021/01/26 04:43:13;;;;;;;8.58;7.37;;;;;;;2.24;88.82;97627.94;1734926;82;21133;-80
2021/01/26 04:46:14;;;;;;;11.08;8.70;;;;;;;2.25;88.32;97625.57;1711076;82;21074;-80
2021/01/26 04:48:59;;;;;;;11.33;10.10;;;;;;;2.28;88.25;97631.70;1726221;82;21164;-81
2021/01/26 04:51:44;;;;;;;11.80;7.95;;;;;;;2.29;88.13;97637.28;1772921;80;20990;-79
2021/01/26 04:54:24;;;;;;;10.78;9.35;;;;;;;2.30;88.07;97638.09;1682013;84;21738;-79
2021/01/26 04:57:29;;;;;;;17.27;11.75;;;;;;;2.31;87.98;97644.45;1662099;83;21002;-78
2021/01/26 05:00:14;;;;;;;15.10;11.35;;;;;;;2.31;87.73;97663.53;1731750;82;20986;-75
2021/01/26 05:03:17;;;;;;;15.45;10.50;;;;;;;2.31;87.09;97669.64;1765846;80;21163;-77
2021/01/26 05:05:47;;;;;;;16.50;11.33;;;;;;;2.31;86.97;97679.45;1782757;80;21121;-78
2021/01/26 05:08:21;;;;;;;15.05;10.55;;;;;;;2.29;86.58;97667.78;1774362;80;22183;-78
2021/01/26 05:10:51;;;;;;;17.40;12.45;;;;;;;2.22;85.74;97694.19;1779686;80;26625;-82
2021/01/26 05:13:36;;;;;;;13.60;10.88;;;;;;;2.19;85.44;97684.36;1786705;80;20971;-83
2021/01/26 05:16:11;;;;;;;14.00;9.38;;;;;;;2.23;85.39;97683.86;1767407;80;21626;-85
2021/01/26 05:18:49;;;;;;;17.15;11.63;;;;;;;2.26;85.32;97693.97;1754104;81;21007;-84
2021/01/26 05:21:52;;;;;;;17.07;11.35;;;;;;;2.30;85.00;97702.55;1769096;80;21192;-85
2021/01/26 05:24:40;;;;;;;13.85;10.45;;;;;;;2.28;84.54;97736.97;1785170;80;21157;-85
2021/01/26 05:27:07;;;;;;;18.57;10.80;;;;;;;2.30;84.10;97713.67;1784619;80;20992;-83
2021/01/26 05:29:36;;;;;;;14.38;9.75;;;;;;;2.32;83.70;97727.47;1766705;80;21109;-85
2021/01/26 05:32:06;;;;;;;18.35;13.10;;;;;;;2.32;82.37;97750.82;1754027;81;21128;-85
2021/01/26 05:34:37;;;;;;;14.80;11.08;;;;;;;2.33;81.63;97734.39;1754216;81;21367;-84
2021/01/26 05:37:10;;;;;;;12.95;9.55;;;;;;;2.34;81.93;97747.94;1771659;80;21093;-83
2021/01/26 05:40:07;;;;;;;13.72;9.20;;;;;;;2.37;81.81;97757.52;1785263;80;21109;-82
2021/01/26 05:42:35;;;;;;;17.35;11.20;;;;;;;2.39;81.41;97738.20;1779720;80;21088;-83
2021/01/26 05:45:07;;;;;;;20.12;12.18;;;;;;;2.39;81.17;97759.42;1753800;81;21085;-85
2021/01/26 05:47:36;;;;;;;14.28;10.25;;;;;;;2.40;80.74;97788.08;1756566;80;22377;-84
2021/01/26 05:50:08;;;;;;;13.30;9.40;;;;;;;2.40;80.88;97774.27;1726020;81;21153;-82
2021/01/26 05:52:38;;;;;;;17.45;11.22;;;;;;;2.41;80.89;97775.07;1702750;84;21083;-81
2021/01/26 05:55:24;;;;;;;14.47;9.70;;;;;;;2.46;80.83;97783.09;1710874;82;20958;-82
2021/01/26 05:57:53;;;;;;;16.35;10.43;;;;;;;2.46;80.87;97770.64;1784785;80;21649;-83
2021/01/26 06:00:27;;;;;;;12.35;10.18;;;;;;;2.49;80.75;97799.88;1784516;80;21213;-83
2021/01/26 06:03:18;;;;;;;11.85;7.67;;;;;;;2.48;80.67;97777.04;1784478;80;21051;-81
2021/01/26 06:06:07;;;;;;;12.05;8.60;;;;;;;2.49;80.38;97788.73;1784164;80;21019;-84
2021/01/26 06:08:54;;;;;;;13.20;9.45;;;;;;;2.48;79.99;97756.62;1703226;81;21200;-81
2021/01/26 06:11:29;;;;;;;10.75;8.08;;;;;;;2.48;79.62;97791.63;1705002;84;21167;-83
2021/01/26 06:14:15;;;;;;;10.72;8.28;;;;;;;2.48;79.63;97801.72;1702609;84;21353;-85
2021/01/26 06:16:42;;;;;;;10.80;7.90;;;;;;;2.50;79.03;97805.44;1777901;80;21145;-84
2021/01/26 06:19:14;;;;;;;10.78;7.80;;;;;;;2.50;78.87;97801.45;1684483;84;21196;-77
2021/01/26 06:21:48;;;;;;;10.18;7.72;;;;;;;2.50;78.77;97809.41;1722464;82;21128;-84
2021/01/26 06:24:23;;;;;;;10.03;8.35;;;;;;;2.49;78.48;97820.58;1731673;82;21180;-83
2021/01/26 06:27:22;;;;;;;10.65;8.50;;;;;;;2.51;78.27;97828.27;1731735;82;21214;-82
2021/01/26 06:30:10;;;;;;;9.40;7.22;;;;;;;2.50;77.90;97835.42;1779040;80;20951;-83
2021/01/26 06:32:49;;;;;;;10.60;7.85;;;;;;;2.54;77.75;97830.45;1750281;81;21140;-83
2021/01/26 06:35:22;;;;;;;8.23;7.20;;;;;;;2.55;77.81;97818.25;1755215;81;21177;-84
2021/01/26 06:38:15;;;;;;;;;;;;;;;2.56;77.63;97829.16;1789225;80;21097;-81
2021/01/26 06:41:19;;;;;;;8.95;6.45;;;;;;;2.57;77.67;97829.44;1773691;80;21260;-83
2021/01/26 06:44:12;;;;;;;9.35;6.80;;;;;;;2.61;77.95;97836.37;1787786;80;21207;-83
2021/01/26 06:46:48;;;;;;;10.03;7.90;;;;;;;2.61;77.55;97854.44;1788101;80;21618;-84
2021/01/26 06:49:48;;;;;;;8.85;6.53;;;;;;;2.61;77.07;97843.81;1770096;80;21181;-83
2021/01/26 06:52:39;;;;;;;10.55;6.60;;;;;;;2.62;77.19;97875.14;1736088;82;21131;-85
2021/01/26 06:55:55;;;;;;;8.18;6.40;;;;;;;2.64;77.13;97864.55;1756743;81;21647;-85
2021/01/26 06:58:38;;;;;;;8.50;6.37;;;;;;;2.62;76.75;97882.58;1765209;80;21142;-82
2021/01/26 07:01:32;;;;;;;7.20;6.15;;;;;;;2.64;76.70;97910.98;1777940;80;21093;-83
2021/01/26 07:04:24;;;;;;;9.80;7.87;;;;;;;2.67;76.12;97893.80;1788210;80;22255;-82
2021/01/26 07:07:23;;;;;;;8.80;5.87;;;;;;;2.67;76.26;97885.83;1697058;81;21700;-80
2021/01/26 07:10:32;;;;;;;6.17;4.55;;;;;;;2.69;76.04;97892.20;1756792;81;21281;-81
2021/01/26 07:13:12;;;;;;;6.80;5.53;;;;;;;2.69;75.97;97905.47;1756762;81;21093;-81
2021/01/26 07:16:03;;;;;;;8.58;6.67;;;;;;;2.72;76.13;97912.97;1756745;81;21129;-83
2021/01/26 07:19:14;;;;;;;7.70;6.28;;;;;;;2.72;75.95;97932.88;1761864;80;21365;-83
2021/01/26 07:22:03;;;;;;;7.70;6.45;;;;;;;2.73;76.08;97922.55;1764943;80;21177;-84
2021/01/26 07:24:53;;;;;;;8.30;6.50;;;;;;;2.73;76.08;97937.95;1767244;80;21764;-82
2021/01/26 07:27:41;;;;;;;7.33;5.35;;;;;;;2.75;76.33;97942.47;1788021;80;21590;-84
2021/01/26 07:30:28;;;;;;;6.83;4.90;;;;;;;2.73;76.48;97932.64;1787692;80;21101;-80
2021/01/26 07:33:27;;;;;;;11.45;7.92;;;;;;;2.73;76.17;97936.63;1736176;82;21013;-83
2021/01/26 07:36:36;;;;;;;7.12;5.70;;;;;;;2.74;76.51;97940.05;1752097;80;21149;-83
2021/01/26 07:39:20;;;;;;;10.25;6.80;;;;;;;2.76;76.67;97953.38;1765428;80;21290;-83
2021/01/26 07:42:13;;;;;;;6.78;5.20;;;;;;;2.76;76.46;97984.42;1779162;80;20983;-82
2021/01/26 07:44:45;;;;;;;11.83;5.70;;;;;;;2.76;76.07;97998.50;1779962;80;21209;-83
2021/01/26 07:47:43;;;;;;;4.92;4.10;;;;;;;2.71;76.03;97963.91;1780396;80;21803;-82
2021/01/26 07:50:33;;;;;;;8.40;5.33;;;;;;;2.70;75.71;97949.02;1764991;80;21141;-82
2021/01/26 07:53:29;;;;;;;6.90;5.65;;;;;;;2.69;75.44;97977.93;1782288;80;21428;-80
2021/01/26 07:56:08;;;;;;;7.17;4.80;;;;;;;2.72;75.69;97966.05;1781021;80;21143;-75
2021/01/26 07:58:36;;;;;;;6.62;5.90;;;;;;;2.77;75.29;97975.41;1765589;80;21129;-82
2021/01/26 08:01:04;;;;;;;6.00;4.95;;;;;;;2.73;75.13;97992.36;1749021;82;21078;-83
2021/01/26 08:03:31;;;;;;;8.70;5.67;;;;;;;2.77;75.36;97991.34;1750046;80;21579;-81
2021/01/26 08:06:00;;;;;;;6.47;4.60;;;;;;;2.80;75.55;97985.02;1751221;82;21205;-83
2021/01/26 08:08:35;;;;;;;4.67;4.20;;;;;;;2.81;75.44;97980.00;1749791;82;21607;-82
2021/01/26 08:11:20;;;;;;;7.97;5.28;;;;;;;2.83;75.46;98018.26;1749017;80;21618;-83
2021/01/26 08:13:55;;;;;;;5.83;4.20;;;;;;;2.85;75.47;97989.08;1731108;82;21051;-82
2021/01/26 08:16:30;;;;;;;6.55;5.47;;;;;;;2.86;75.29;97992.55;1749016;82;21168;-83
2021/01/26 08:18:58;;;;;;;7.08;4.70;;;;;;;2.87;75.49;98022.03;1716879;82;22196;-83
2021/01/26 08:21:37;;;;;;;6.90;4.80;;;;;;;2.86;75.43;98025.20;1777869;80;21081;-81
2021/01/26 08:24:19;;;;;;;7.12;5.25;;;;;;;2.85;75.32;98030.23;1760839;81;21151;-82
2021/01/26 08:26:48;;;;;;;5.95;4.28;;;;;;;2.87;75.15;98045.92;1729353;82;21577;-79
2021/01/26 08:29:41;;;;;;;7.62;5.25;;;;;;;2.87;75.11;98018.86;1729530;83;21127;-79
2021/01/26 08:32:33;;;;;;;5.85;4.30;;;;;;;2.90;75.24;98038.80;1726441;82;22201;-83
2021/01/26 08:35:14;;;;;;;7.00;4.00;;;;;;;2.89;75.25;98071.17;1741917;81;21222;-83
2021/01/26 08:37:50;;;;;;;4.75;4.15;;;;;;;2.90;75.20;98036.14;1748732;82;21061;-83
2021/01/26 08:40:21;;;;;;;6.03;4.28;;;;;;;2.88;74.95;98040.88;1749941;82;21084;-83
2021/01/26 08:42:53;;;;;;;7.10;4.45;;;;;;;2.86;75.07;98021.23;1749835;81;21148;-83
2021/01/26 08:45:33;;;;;;;6.78;5.25;;;;;;;2.87;75.06;98045.92;1749843;82;21398;-83
2021/01/26 08:48:05;;;;;;;4.45;3.80;;;;;;;2.87;75.17;98055.22;1750221;82;21192;-84
2021/01/26 08:50:53;;;;;;;5.87;4.87;;;;;;;2.88;74.82;98064.25;1725718;81;21146;-82
2021/01/26 08:53:29;;;;;;;4.60;3.60;;;;;;;2.90;74.81;98054.73;1710664;83;22345;-81
2021/01/26 08:55:59;;;;;;;4.85;4.00;;;;;;;2.89;74.17;98104.36;1753655;81;21582;-81
2021/01/26 08:58:48;;;;;;;6.05;3.62;;;;;;;2.88;73.70;98091.31;1704854;84;21211;-83
2021/01/26 09:01:36;;;;;;;3.62;3.33;;;;;;;2.88;73.73;98080.18;1691443;84;21228;-82
2021/01/26 09:04:21;;;;;;;4.20;3.75;;;;;;;2.88;73.70;98085.48;1727736;82;21183;-84
2021/01/26 09:06:50;;;;;;;4.95;4.53;;;;;;;2.89;73.55;98098.24;1749710;82;21132;-81
2021/01/26 09:09:22;;;;;;;5.35;4.10;;;;;;;2.90;73.57;98091.89;1711884;82;21108;-82
2021/01/26 09:11:55;;;;;;;4.00;3.40;;;;;;;2.91;73.63;98098.82;1704916;84;21673;-85
2021/01/26 09:14:42;;;;;;;4.28;3.22;;;;;;;2.92;72.55;98115.05;1675605;83;21669;-82
2021/01/26 09:17:24;;;;;;;4.22;3.33;;;;;;;2.93;72.71;98088.23;1719087;83;21610;-76
2021/01/26 09:20:06;;;;;;;4.45;4.03;;;;;;;2.96;72.46;98097.58;1723478;82;21196;-85
2021/01/26 09:22:36;;;;;;;5.47;3.95;;;;;;;2.93;72.09;98140.01;1759336;81;21188;-81
2021/01/26 09:25:26;;;;;;;4.20;3.80;;;;;;;2.95;72.23;98137.12;1759316;81;21124;-82
2021/01/26 09:28:08;;;;;;;4.45;3.60;;;;;;;2.91;72.23;98122.72;1714689;83;21165;-82
2021/01/26 09:30:40;;;;;;;7.35;4.40;;;;;;;2.89;71.88;98132.23;1759656;81;21570;-79
2021/01/26 09:33:21;;;;;;;2.98;2.50;;;;;;;2.91;72.11;98126.70;1711623;83;21064;-81
2021/01/26 09:36:16;;;;;;;3.92;3.50;;;;;;;2.90;71.50;98119.25;1714418;83;21586;-81
2021/01/26 09:38:48;;;;;;;3.83;3.47;;;;;;;2.87;70.98;98124.24;1691250;82;21208;-79
2021/01/26 09:41:24;;;;;;;4.20;3.80;;;;;;;2.88;71.50;98127.16;1713485;83;21206;-81
2021/01/26 09:43:57;;;;;;;3.70;3.37;;;;;;;2.87;71.52;98165.39;1688112;83;21198;-81
2021/01/26 09:46:34;;;;;;;3.77;3.20;;;;;;;2.88;71.53;98160.34;1713400;83;21166;-84
2021/01/26 09:49:23;;;;;;;4.65;3.85;;;;;;;2.88;71.45;98133.27;1709084;84;21569;-80
2021/01/26 09:51:55;;;;;;;6.05;3.75;;;;;;;2.89;71.58;98169.41;1721885;83;21198;-81
2021/01/26 09:54:28;;;;;;;8.23;3.25;;;;;;;2.87;71.74;98178.15;1721753;83;21192;-80
2021/01/26 09:57:00;;;;;;;3.85;3.25;;;;;;;2.86;71.61;98152.64;1721962;83;21146;-83
2021/01/26 09:59:31;;;;;;;3.52;2.70;;;;;;;2.88;71.96;98179.73;1745827;81;21186;-80
2021/01/26 10:02:00;;;;;;;7.62;3.72;;;;;;;2.85;71.54;98164.30;1756772;81;21123;-82
2021/01/26 10:04:27;;;;;;;8.15;4.25;;;;;;;2.87;71.82;98187.95;1759348;81;22180;-84
2021/01/26 10:07:04;;;;;;;6.53;4.42;;;;;;;2.87;71.83;98189.28;1753628;81;21189;-81
2021/01/26 10:09:33;;;;;;;5.75;4.47;;;;;;;2.88;72.00;98189.55;1753423;81;21191;-83
2021/01/26 10:12:40;;;;;;;8.95;4.78;;;;;;;2.88;71.79;98157.69;1752091;81;21226;-80
2021/01/26 10:15:34;;;;;;;6.72;4.37;;;;;;;2.88;72.03;98180.25;1726733;81;21150;-81
2021/01/26 10:18:13;;;;;;;7.15;4.53;;;;;;;2.89;72.01;98193.82;1752874;81;21163;-83
2021/01/26 10:20:49;;;;;;;5.75;4.22;;;;;;;2.84;71.92;98182.58;1757592;81;20970;-81
2021/01/26 10:23:34;;;;;;;4.60;4.10;;;;;;;2.86;72.02;98190.33;1759395;81;21152;-79
2021/01/26 10:26:13;;;;;;;5.35;4.85;;;;;;;2.85;72.09;98208.61;1752710;81;21160;-79
2021/01/26 10:29:12;;;;;;;3.27;2.92;;;;;;;2.84;72.26;98213.62;1759315;81;21658;-83
2021/01/26 10:31:48;;;;;;;5.90;3.95;;;;;;;2.84;72.21;98207.80;1759232;81;21780;-79
2021/01/26 10:34:36;;;;;;;8.93;3.72;;;;;;;2.82;72.30;98199.80;1710429;83;21094;-80
2021/01/26 10:37:28;;;;;;;4.03;3.52;;;;;;;2.82;72.33;98193.17;1676989;84;21061;-82
2021/01/26 10:40:31;;;;;;;7.40;4.03;;;;;;;2.84;72.71;98203.82;1672925;85;21043;-80
2021/01/26 10:43:12;;;;;;;5.78;4.37;;;;;;;2.86;72.43;98196.44;1685062;85;21574;-81
2021/01/26 10:45:49;;;;;;;5.00;4.42;;;;;;;2.85;72.39;98233.31;1676228;84;21356;-84
2021/01/26 10:48:34;;;;;;;5.37;4.42;;;;;;;2.84;72.34;98230.89;1702053;83;21192;-81
2021/01/26 10:51:31;;;;;;;4.60;3.55;;;;;;;2.84;72.41;98233.03;1701547;84;21605;-82
2021/01/26 10:54:00;;;;;;;5.28;4.22;;;;;;;2.84;72.04;98232.22;1681600;84;21203;-83
2021/01/26 10:56:28;;;;;;;10.32;4.55;;;;;;;2.85;72.47;98230.66;1701571;84;21641;-81
2021/01/26 10:58:56;;;;;;;4.47;3.77;;;;;;;2.87;72.57;98312.22;1702793;84;21021;-79
2021/01/26 11:01:23;;;;;;;6.60;3.62;;;;;;;2.89;71.76;98245.59;1683806;84;21650;-82
2021/01/26 11:03:52;;;;;;;6.42;4.17;;;;;;;2.90;71.83;98228.62;1656791;86;21076;-82
2021/01/26 11:06:22;;;;;;;5.03;3.35;;;;;;;2.88;71.92;98252.74;1689123;83;21208;-69
2021/01/26 11:08:53;;;;;;;6.35;3.90;;;;;;;2.90;72.14;98229.95;1710621;83;21607;-73
2021/01/26 11:11:24;;;;;;;8.23;4.00;;;;;;;2.91;71.69;98236.36;1705604;84;21368;-73
2021/01/26 11:13:52;;;;;;;4.47;3.95;;;;;;;2.93;71.72;98270.63;1675717;85;21156;-74
2021/01/26 11:16:21;;;;;;;6.33;4.20;;;;;;;2.92;71.38;98307.53;1706442;83;21187;-72
2021/01/26 11:18:48;;;;;;;8.23;4.62;;;;;;;2.94;71.52;98258.45;1705314;83;21208;-71
2021/01/26 11:21:16;;;;;;;4.75;3.75;;;;;;;2.96;71.47;98268.84;1705617;84;21210;-72
2021/01/26 11:23:47;;;;;;;7.08;3.90;;;;;;;2.97;71.36;98253.20;1705554;84;21206;-73
2021/01/26 11:26:17;;;;;;;5.85;5.25;;;;;;;2.96;71.05;98258.22;1705534;84;21083;-71
2021/01/26 11:28:47;;;;;;;6.92;4.30;;;;;;;2.97;71.17;98256.64;1680317;84;21216;-72
2021/01/26 11:31:16;;;;;;;8.80;5.08;;;;;;;3.01;71.37;98257.00;1700823;84;21189;-72
2021/01/26 11:33:44;;;;;;;6.00;4.10;;;;;;;3.02;71.10;98277.20;1704913;83;21157;-86
2021/01/26 11:36:12;;;;;;;6.20;4.80;;;;;;;3.03;71.04;98291.55;1724188;82;21561;-74
2021/01/26 11:38:40;;;;;;;9.58;4.83;;;;;;;3.03;70.91;98288.09;1736735;82;21072;-67
2021/01/26 11:41:08;;;;;;;7.25;4.10;;;;;;;3.01;70.61;98322.87;1720337;81;21602;-72
2021/01/26 11:43:36;;;;;;;8.13;4.22;;;;;;;3.01;70.22;98279.57;1760229;81;21081;-68
2021/01/26 11:46:06;;;;;;;7.65;4.83;;;;;;;3.02;70.27;98321.02;1725154;83;21157;-66
2021/01/26 11:48:34;;;;;;;8.83;5.95;;;;;;;2.99;70.25;98298.38;1759246;81;21665;-67
2021/01/26 11:51:03;;;;;;;7.75;4.58;;;;;;;3.01;70.55;98317.55;1724944;83;21141;-67
2021/01/26 11:53:30;;;;;;;7.33;4.33;;;;;;;3.02;70.41;98305.09;1755428;81;21010;-69
2021/01/26 11:56:01;;;;;;;6.78;4.42;;;;;;;3.05;70.51;98310.73;1756341;81;21140;-70
2021/01/26 11:58:28;;;;;;;6.42;4.05;;;;;;;3.06;69.90;98307.03;1759144;81;21610;-66
2021/01/26 12:00:56;;;;;;;5.45;3.55;;;;;;;3.08;70.04;98311.58;1759102;81;21448;-70
2021/01/26 12:03:24;;;;;;;7.05;4.83;;;;;;;3.10;69.85;98336.58;1724374;83;21180;-66
2021/01/26 12:05:52;;;;;;;5.53;4.75;;;;;;;3.12;69.71;98303.16;1758958;81;21192;-66
2021/01/26 12:08:20;;;;;;;8.83;4.30;;;;;;;3.15;69.93;98327.91;1724860;83;21115;-69
2021/01/26 12:10:50;;;;;;;5.30;4.05;;;;;;;3.16;69.77;98318.39;1738332;82;21547;-69
2021/01/26 12:13:18;;;;;;;6.45;4.97;;;;;;;3.18;69.44;98330.08;1738251;82;21210;-68
2021/01/26 12:15:46;;;;;;;6.03;4.72;;;;;;;3.19;69.53;98367.05;1755472;81;21132;-67
2021/01/26 12:18:14;;;;;;;4.17;3.77;;;;;;;3.19;69.18;98338.34;1758853;81;21581;-69
2021/01/26 12:20:42;;;;;;;4.40;3.33;;;;;;;3.17;68.92;98337.76;1759844;81;22182;-69
2021/01/26 12:23:09;;;;;;;4.65;3.92;;;;;;;3.17;68.95;98340.41;1724507;83;21169;-71
2021/01/26 12:25:39;;;;;;;9.88;4.60;;;;;;;3.17;68.92;98347.86;1760438;81;22482;-70
2021/01/26 12:28:07;;;;;;;7.30;4.50;;;;;;;3.19;68.99;98347.13;1725108;83;21240;-69